New Salem, Massachusetts
Current Conditions -  °F | °C
As of 1:52 AM on Sunday 26 Oct 2014 (Local Time) from KORE Reporting Station
Clear Clear  
Wind Chill: 45°   Ceiling: Unl
Heat Index: 45°   Visibility: 7mi
Dew Point: 43°   Wind: 3mph
Humidity: 93%   Direction: 110°ESE
Pressure: 29.49"   Gusts: NA
Location:  42.5°N, 72.33°W
Report Text: KORE 260552Z AUTO 11003KT 7SM CLR 07/06 A2949 RMK AO2 SLP987 60000 T00720061 10100 20067 56016
Loading
Personal Weather Stations






























Interactive Weather Map
Tropical Storm Tracking
New forecast layout! Learn more

10-Day Weather Forecast

Advertisements
Track Severe Weather on mobile